createdAt,value
2018-03-22T00:01:40.044Z,99.90
2018-03-22T00:04:07.685Z,99.90
2018-03-22T00:06:35.304Z,99.90
2018-03-22T00:09:02.908Z,99.90
2018-03-22T00:11:30.523Z,99.90
2018-03-22T00:13:58.145Z,99.90
2018-03-22T00:16:25.722Z,99.90
2018-03-22T00:18:55.084Z,99.90
2018-03-22T00:21:22.673Z,99.90
2018-03-22T00:23:50.300Z,99.90
2018-03-22T00:26:17.934Z,99.90
2018-03-22T00:28:46.295Z,99.90
2018-03-22T00:31:13.923Z,99.90
2018-03-22T00:33:41.511Z,99.90
2018-03-22T00:36:09.098Z,99.90
2018-03-22T00:38:37.471Z,99.90
2018-03-22T00:41:05.070Z,99.90
2018-03-22T00:43:32.703Z,99.90
2018-03-22T00:46:01.093Z,99.90
2018-03-22T00:48:28.725Z,99.90
2018-03-22T00:50:56.353Z,99.90
2018-03-22T00:53:23.956Z,99.90
2018-03-22T00:55:51.557Z,99.90
2018-03-22T00:58:19.174Z,99.90
2018-03-22T01:00:46.787Z,99.90
2018-03-22T01:03:15.257Z,99.90
2018-03-22T01:05:42.878Z,99.90
2018-03-22T01:08:10.528Z,99.90
2018-03-22T01:10:38.220Z,99.90
2018-03-22T01:13:05.847Z,99.90
2018-03-22T01:15:34.322Z,99.90
2018-03-22T01:18:01.960Z,99.90
2018-03-22T01:20:29.553Z,99.90
2018-03-22T01:22:57.207Z,99.90
2018-03-22T01:25:39.162Z,99.90
2018-03-22T01:28:07.518Z,99.90
2018-03-22T01:30:36.599Z,99.90
2018-03-22T01:33:04.957Z,99.90
2018-03-22T01:35:32.566Z,99.90
2018-03-22T01:38:00.173Z,99.90
2018-03-22T01:40:28.503Z,99.90
2018-03-22T01:42:56.154Z,99.90
2018-03-22T01:45:23.795Z,99.90
2018-03-22T01:47:52.176Z,99.90
2018-03-22T01:50:20.528Z,99.90
2018-03-22T01:52:59.931Z,99.90
2018-03-22T01:55:27.530Z,99.90
2018-03-22T01:57:56.737Z,99.90
2018-03-22T02:00:24.363Z,99.90
2018-03-22T02:02:51.977Z,99.90
2018-03-22T02:05:20.375Z,99.90
2018-03-22T02:07:48.029Z,99.90
2018-03-22T02:10:15.620Z,99.90
2018-03-22T02:12:43.300Z,99.90
2018-03-22T02:15:10.974Z,99.90
2018-03-22T02:17:38.610Z,99.90
2018-03-22T02:20:06.243Z,99.90
2018-03-22T02:22:33.803Z,99.90
2018-03-22T02:25:01.397Z,99.90
2018-03-22T02:27:28.949Z,99.90
2018-03-22T02:29:56.574Z,99.90
2018-03-22T02:32:24.159Z,99.90
2018-03-22T02:34:51.739Z,99.90
2018-03-22T02:37:19.335Z,99.90
2018-03-22T02:39:46.975Z,99.90
2018-03-22T02:42:14.544Z,99.90
2018-03-22T02:44:42.138Z,99.90
2018-03-22T02:47:09.716Z,99.90
2018-03-22T02:49:37.315Z,99.90
2018-03-22T02:52:04.982Z,99.90
2018-03-22T02:54:32.544Z,99.90
2018-03-22T02:57:00.203Z,99.90
2018-03-22T02:59:27.761Z,99.90
2018-03-22T03:01:55.406Z,99.90
2018-03-22T03:04:23.014Z,99.90
2018-03-22T03:06:51.424Z,99.90
2018-03-22T03:09:19.051Z,99.90
2018-03-22T03:11:47.448Z,99.90
2018-03-22T03:14:15.047Z,99.90
2018-03-22T03:16:42.642Z,99.90
2018-03-22T03:19:11.034Z,99.90
2018-03-22T03:21:38.662Z,99.90
2018-03-22T03:24:06.271Z,99.90
2018-03-22T03:26:33.901Z,99.90
2018-03-22T03:29:02.274Z,99.90
2018-03-22T03:31:29.916Z,99.90
2018-03-22T03:33:57.567Z,99.90
2018-03-22T03:36:25.146Z,99.90
2018-03-22T03:38:52.794Z,99.90
2018-03-22T03:41:20.454Z,99.90
2018-03-22T03:43:48.049Z,99.90
2018-03-22T03:46:16.467Z,99.90
2018-03-22T03:48:44.084Z,99.90
2018-03-22T03:51:11.691Z,99.90
2018-03-22T03:53:39.331Z,99.90
2018-03-22T03:56:06.907Z,99.90
2018-03-22T03:58:34.563Z,99.90
2018-03-22T04:01:02.178Z,99.90
2018-03-22T04:03:29.929Z,99.90
2018-03-22T04:05:58.206Z,99.90
2018-03-22T04:17:16.959Z,99.90
2018-03-22T04:19:44.550Z,99.90
2018-03-22T04:22:12.214Z,99.90
2018-03-22T04:24:39.847Z,99.90
2018-03-22T04:27:07.500Z,99.90
2018-03-22T04:29:35.104Z,99.90
2018-03-22T04:32:02.767Z,99.90
2018-03-22T04:34:30.395Z,99.90
2018-03-22T04:36:57.986Z,99.90
2018-03-22T04:39:25.580Z,99.90
2018-03-22T04:41:53.231Z,99.90
2018-03-22T04:44:20.887Z,99.90
2018-03-22T04:46:48.528Z,99.90
2018-03-22T04:49:16.120Z,99.90
2018-03-22T04:51:43.702Z,99.90
2018-03-22T04:54:12.023Z,99.90
2018-03-22T04:56:39.545Z,99.90
2018-03-22T04:59:07.851Z,99.90
2018-03-22T05:01:35.401Z,99.90
2018-03-22T05:04:02.931Z,99.90
2018-03-22T05:06:31.911Z,99.90
2018-03-22T05:08:59.450Z,99.90
2018-03-22T05:11:27.006Z,99.90
2018-03-22T05:13:55.378Z,99.90
2018-03-22T05:16:23.007Z,99.90
2018-03-22T05:18:50.663Z,99.90
2018-03-22T05:21:18.344Z,99.90
2018-03-22T05:23:45.919Z,99.90
2018-03-22T05:26:13.560Z,99.90
2018-03-22T05:28:41.212Z,99.90
2018-03-22T05:31:08.835Z,99.90
2018-03-22T05:33:38.388Z,99.90
2018-03-22T05:36:14.176Z,99.90
2018-03-22T05:38:41.754Z,99.90
2018-03-22T05:41:10.085Z,99.90
2018-03-22T05:43:37.724Z,99.90
2018-03-22T05:46:05.347Z,99.90
2018-03-22T05:48:33.007Z,99.90
2018-03-22T05:51:00.624Z,99.90
2018-03-22T05:53:28.206Z,99.90
2018-03-22T05:55:55.843Z,99.90
2018-03-22T05:58:23.455Z,99.90
2018-03-22T06:00:51.863Z,99.90
2018-03-22T06:03:19.511Z,99.90
2018-03-22T06:05:48.689Z,99.90
2018-03-22T06:08:17.161Z,99.90
2018-03-22T06:10:44.787Z,99.90
2018-03-22T06:13:12.355Z,99.90
2018-03-22T06:15:40.051Z,99.90
2018-03-22T06:18:07.634Z,99.90
2018-03-22T06:20:35.291Z,99.90
2018-03-22T06:23:02.892Z,99.90
2018-03-22T06:25:30.543Z,99.90
2018-03-22T06:27:58.148Z,99.90
2018-03-22T06:30:25.770Z,99.90
2018-03-22T06:32:53.412Z,99.90
2018-03-22T06:35:21.011Z,99.90
2018-03-22T06:37:48.653Z,99.90
2018-03-22T06:40:16.245Z,99.90
2018-03-22T06:42:43.846Z,99.90
2018-03-22T06:45:11.432Z,99.90
2018-03-22T06:47:39.066Z,99.90
2018-03-22T06:50:06.662Z,99.10
2018-03-22T06:52:34.280Z,95.20
2018-03-22T06:55:01.951Z,94.50
2018-03-22T06:57:29.558Z,93.30
2018-03-22T06:59:57.164Z,93.40
2018-03-22T07:02:24.776Z,92.70
2018-03-22T07:04:52.358Z,91.90
2018-03-22T07:07:19.965Z,90.40
2018-03-22T07:09:47.570Z,90.90
2018-03-22T07:12:15.158Z,92.60
2018-03-22T07:14:43.510Z,93.20
2018-03-22T07:17:11.114Z,93.40
2018-03-22T07:19:38.742Z,94.60
2018-03-22T07:22:06.316Z,94.90
2018-03-22T07:24:33.896Z,93.50
2018-03-22T07:27:02.266Z,93.50
2018-03-22T07:29:29.895Z,93.50
2018-03-22T07:31:57.528Z,93.30
2018-03-22T07:34:25.126Z,93.50
2018-03-22T07:36:52.803Z,93.60
2018-03-22T07:39:20.339Z,92.30
2018-03-22T07:41:47.903Z,91.80
2018-03-22T07:47:15.471Z,92.80
2018-03-22T07:49:43.017Z,92.80
2018-03-22T07:52:10.548Z,92.00
2018-03-22T07:54:38.067Z,91.10
2018-03-22T07:57:05.602Z,89.70
2018-03-22T07:59:33.116Z,88.50
2018-03-22T08:02:00.645Z,88.60
2018-03-22T08:04:28.162Z,84.00
2018-03-22T08:06:55.694Z,84.00
2018-03-22T08:09:23.226Z,79.30
2018-03-22T08:11:50.745Z,82.00
2018-03-22T08:14:18.266Z,80.80
2018-03-22T08:16:46.822Z,76.20
2018-03-22T08:19:14.357Z,75.20
2018-03-22T08:21:41.874Z,70.60
2018-03-22T08:24:09.410Z,71.60
2018-03-22T08:26:38.855Z,57.00
2018-03-22T08:29:06.389Z,57.00
2018-03-22T08:31:33.970Z,56.10
2018-03-22T08:34:02.226Z,58.10
2018-03-22T08:36:29.755Z,58.10
2018-03-22T08:38:57.286Z,58.80
2018-03-22T08:41:24.839Z,62.70
2018-03-22T08:43:52.333Z,66.20
2018-03-22T08:46:19.858Z,64.70
2018-03-22T08:48:47.373Z,63.70
2018-03-22T08:51:14.894Z,63.90
2018-03-22T08:53:42.406Z,61.40
2018-03-22T08:56:10.667Z,66.10
2018-03-22T08:58:38.794Z,65.50
2018-03-22T09:01:06.353Z,63.40
2018-03-22T09:03:35.003Z,61.30
2018-03-22T09:06:02.540Z,61.30
2018-03-22T09:08:30.056Z,62.70
2018-03-22T09:10:57.576Z,61.80
2018-03-22T09:13:25.102Z,56.70
2018-03-22T09:15:53.409Z,57.50
2018-03-22T09:18:20.941Z,57.50
2018-03-22T09:20:49.237Z,56.40
2018-03-22T09:23:16.772Z,56.30
2018-03-22T09:25:45.054Z,56.20
2018-03-22T09:28:13.346Z,52.10
2018-03-22T09:30:40.865Z,52.20
2018-03-22T09:33:08.404Z,54.30
2018-03-22T09:35:35.922Z,53.00
2018-03-22T09:38:03.464Z,52.60
2018-03-22T09:40:31.004Z,48.40
2018-03-22T09:42:59.388Z,46.50
2018-03-22T09:45:27.747Z,46.30
2018-03-22T09:47:55.352Z,46.30
2018-03-22T09:50:22.955Z,46.70
2018-03-22T09:52:50.578Z,47.30
2018-03-22T09:55:18.156Z,47.50
2018-03-22T09:57:45.739Z,47.30
2018-03-22T10:00:13.333Z,45.80
2018-03-22T10:02:40.895Z,45.40
2018-03-22T10:05:08.451Z,47.50
2018-03-22T10:07:36.067Z,47.20
2018-03-22T10:10:03.722Z,46.30
2018-03-22T10:12:31.316Z,45.80
2018-03-22T10:14:59.730Z,48.50
2018-03-22T10:17:27.345Z,48.90
2018-03-22T10:19:54.983Z,47.80
2018-03-22T10:22:23.592Z,49.40
2018-03-22T10:24:51.250Z,48.60
2018-03-22T10:27:19.530Z,48.10
2018-03-22T10:29:47.179Z,47.50
2018-03-22T10:32:14.748Z,47.00
2018-03-22T10:34:42.341Z,48.00
2018-03-22T10:37:09.933Z,48.50
2018-03-22T10:39:37.483Z,49.80
2018-03-22T10:42:05.091Z,47.50
2018-03-22T10:44:32.674Z,44.70
2018-03-22T10:47:01.036Z,39.80
2018-03-22T10:49:28.610Z,39.80
2018-03-22T10:51:56.995Z,39.80
2018-03-22T10:54:25.406Z,41.50
2018-03-22T10:56:52.970Z,41.30
2018-03-22T10:59:20.567Z,45.10
2018-03-22T11:01:53.804Z,41.60
2018-03-22T11:04:21.379Z,39.80
2018-03-22T11:06:48.934Z,42.40
2018-03-22T11:09:16.582Z,42.20
2018-03-22T11:11:44.147Z,40.30
2018-03-22T11:14:11.759Z,44.60
2018-03-22T11:16:40.000Z,43.60
2018-03-22T11:19:07.610Z,48.90
2018-03-22T11:21:35.249Z,47.90
2018-03-22T11:24:02.858Z,48.70
2018-03-22T11:26:30.425Z,47.70
2018-03-22T11:28:58.026Z,48.40
2018-03-22T11:31:25.662Z,49.10
2018-03-22T11:34:00.070Z,48.40
2018-03-22T11:36:27.654Z,50.60
2018-03-22T11:38:56.183Z,47.30
2018-03-22T11:41:24.609Z,46.50
2018-03-22T11:43:52.151Z,46.20
2018-03-22T11:46:20.106Z,48.70
2018-03-22T11:48:47.715Z,46.20
2018-03-22T11:51:15.308Z,47.30
2018-03-22T11:53:42.924Z,47.80
2018-03-22T11:56:10.492Z,46.70
2018-03-22T11:58:38.167Z,48.60
2018-03-22T12:01:05.734Z,49.00
2018-03-22T12:03:33.361Z,46.50
2018-03-22T12:06:01.008Z,47.50
2018-03-22T12:08:29.476Z,48.30
2018-03-22T12:10:57.055Z,50.10
2018-03-22T12:13:24.603Z,46.50
2018-03-22T12:15:52.208Z,47.50
2018-03-22T12:18:19.768Z,48.00
2018-03-22T12:20:47.351Z,48.40
2018-03-22T12:23:14.978Z,49.20
2018-03-22T12:25:42.584Z,49.10
2018-03-22T12:28:10.214Z,47.50
2018-03-22T12:30:37.807Z,47.20
2018-03-22T12:33:05.399Z,50.20
2018-03-22T12:35:33.836Z,48.50
2018-03-22T12:38:01.429Z,51.40
2018-03-22T12:40:29.043Z,52.60
2018-03-22T12:42:57.424Z,55.60
2018-03-22T12:45:26.641Z,62.90
2018-03-22T12:47:54.238Z,62.90
2018-03-22T12:50:21.825Z,72.30
2018-03-22T12:52:49.452Z,78.80
2018-03-22T12:55:17.065Z,84.60
2018-03-22T12:57:45.776Z,90.40
2018-03-22T13:00:13.361Z,90.60
2018-03-22T13:02:40.990Z,92.00
2018-03-22T13:05:09.543Z,91.70
2018-03-22T13:07:37.096Z,92.00
2018-03-22T13:10:04.708Z,92.10
2018-03-22T13:12:32.275Z,93.60
2018-03-22T13:14:59.868Z,93.30
2018-03-22T13:17:27.499Z,95.10
2018-03-22T13:19:55.067Z,95.60
2018-03-22T13:22:22.684Z,96.10
2018-03-22T13:24:51.039Z,96.00
2018-03-22T13:27:18.665Z,96.10
2018-03-22T13:29:46.284Z,97.00
2018-03-22T13:32:15.596Z,98.70
2018-03-22T13:34:43.168Z,98.70
2018-03-22T13:37:10.760Z,99.90
2018-03-22T13:39:38.304Z,99.90
2018-03-22T13:42:05.893Z,99.90
2018-03-22T13:44:33.460Z,99.90
2018-03-22T13:47:01.110Z,99.90
2018-03-22T13:49:28.727Z,99.90
2018-03-22T13:51:56.341Z,99.90
2018-03-22T13:54:23.891Z,99.90
2018-03-22T13:56:51.484Z,99.90
2018-03-22T13:59:19.867Z,99.90
2018-03-22T14:01:48.232Z,99.90
2018-03-22T14:04:16.577Z,99.90
2018-03-22T14:06:44.166Z,99.90
2018-03-22T14:09:22.492Z,99.90
2018-03-22T14:11:50.096Z,99.90
2018-03-22T14:14:17.712Z,99.90
2018-03-22T14:16:45.273Z,99.90
2018-03-22T14:19:12.905Z,99.90
2018-03-22T14:21:40.480Z,99.90
2018-03-22T14:24:08.822Z,99.90
2018-03-22T14:26:36.433Z,99.90
2018-03-22T14:29:04.019Z,99.90
2018-03-22T14:31:31.625Z,99.90
2018-03-22T14:33:59.210Z,99.90
2018-03-22T14:36:27.568Z,99.90
2018-03-22T14:38:55.187Z,99.90
2018-03-22T14:41:22.786Z,99.90
2018-03-22T14:43:50.359Z,99.90
2018-03-22T14:46:18.701Z,99.90
2018-03-22T14:48:46.284Z,99.90
2018-03-22T14:51:13.890Z,99.90
2018-03-22T14:53:41.528Z,99.60
2018-03-22T14:56:11.011Z,98.80
2018-03-22T14:58:38.641Z,98.80
2018-03-22T15:01:06.211Z,99.40
2018-03-22T15:03:33.864Z,99.70
2018-03-22T15:06:01.475Z,98.10
2018-03-22T15:08:29.078Z,98.60
2018-03-22T15:10:56.677Z,98.60
2018-03-22T15:13:31.486Z,99.10
2018-03-22T15:15:59.091Z,99.00
2018-03-22T15:18:26.657Z,99.90
2018-03-22T15:20:54.222Z,99.90
2018-03-22T15:23:21.815Z,99.90
2018-03-22T15:25:49.390Z,99.90
2018-03-22T15:28:24.103Z,99.90
2018-03-22T15:30:51.689Z,99.90
2018-03-22T15:33:19.302Z,99.90
2018-03-22T15:35:46.875Z,99.90
2018-03-22T15:38:14.507Z,99.90
2018-03-22T15:40:42.127Z,99.90
2018-03-22T15:43:09.735Z,99.90
2018-03-22T15:45:37.347Z,99.90
2018-03-22T15:48:04.950Z,99.90
2018-03-22T15:50:36.631Z,99.90
2018-03-22T15:53:04.302Z,99.90
2018-03-22T15:55:35.562Z,99.90
2018-03-22T15:58:03.153Z,99.90
2018-03-22T16:00:31.564Z,99.90
2018-03-22T16:02:59.142Z,99.90
2018-03-22T16:05:26.739Z,99.90
2018-03-22T16:07:55.075Z,99.90
2018-03-22T16:10:22.695Z,99.90
2018-03-22T16:12:50.266Z,99.90
2018-03-22T16:15:17.867Z,99.90
2018-03-22T16:17:45.479Z,99.90
2018-03-22T16:20:13.090Z,99.90
2018-03-22T16:22:40.754Z,99.90
2018-03-22T16:25:08.364Z,99.90
2018-03-22T16:27:36.010Z,99.90
2018-03-22T16:30:04.342Z,99.90
2018-03-22T16:32:31.964Z,99.90
2018-03-22T16:34:59.571Z,99.90
2018-03-22T16:37:27.182Z,99.90
2018-03-22T16:39:54.787Z,99.90
2018-03-22T16:42:22.948Z,99.90
2018-03-22T16:44:50.605Z,99.90
2018-03-22T16:47:18.183Z,99.90
2018-03-22T16:49:45.791Z,99.90
2018-03-22T16:52:13.408Z,99.90
2018-03-22T16:57:35.352Z,99.90
2018-03-22T17:00:04.892Z,99.90
2018-03-22T17:02:39.460Z,99.90
2018-03-22T17:05:07.096Z,99.90
2018-03-22T17:07:34.745Z,99.90
2018-03-22T17:10:07.712Z,99.90
2018-03-22T17:12:35.300Z,99.90
2018-03-22T17:15:02.955Z,99.90
2018-03-22T17:17:37.819Z,99.90
2018-03-22T17:20:06.279Z,99.90
2018-03-22T17:22:33.853Z,99.90
2018-03-22T17:25:02.079Z,99.90
2018-03-22T17:27:29.694Z,99.90
2018-03-22T17:29:57.295Z,99.90
2018-03-22T17:32:24.890Z,99.90
2018-03-22T17:34:52.488Z,99.90
2018-03-22T17:37:20.084Z,99.90
2018-03-22T17:39:47.858Z,99.90
2018-03-22T17:42:16.244Z,99.90
2018-03-22T17:44:43.859Z,99.90
2018-03-22T17:47:11.487Z,99.90
2018-03-22T17:49:39.998Z,99.90
2018-03-22T17:52:07.591Z,99.90
2018-03-22T17:54:45.869Z,99.90
2018-03-22T17:57:13.486Z,99.90
2018-03-22T17:59:41.080Z,99.90
2018-03-22T18:02:08.708Z,99.90
2018-03-22T18:04:36.278Z,99.90
2018-03-22T18:07:03.941Z,99.90
2018-03-22T18:09:31.516Z,99.90
2018-03-22T18:11:59.091Z,99.90
2018-03-22T18:14:26.671Z,99.90
2018-03-22T18:16:54.323Z,99.90
2018-03-22T18:19:21.962Z,99.90
2018-03-22T18:21:49.555Z,99.90
2018-03-22T18:24:17.168Z,99.90
2018-03-22T18:26:44.765Z,99.90
2018-03-22T18:29:12.392Z,99.90
2018-03-22T18:31:40.573Z,99.90
2018-03-22T18:34:08.168Z,99.90
2018-03-22T18:36:35.786Z,99.90
2018-03-22T18:39:03.367Z,99.90
2018-03-22T18:41:30.972Z,99.90
2018-03-22T18:43:59.308Z,99.90
2018-03-22T18:46:26.886Z,99.90
2018-03-22T18:48:54.528Z,99.90
2018-03-22T18:51:22.151Z,99.90
2018-03-22T18:53:49.815Z,99.90
2018-03-22T18:56:37.788Z,99.90
2018-03-22T18:59:05.371Z,99.90
2018-03-22T19:01:33.018Z,99.90
2018-03-22T19:04:00.611Z,99.90
2018-03-22T19:06:28.997Z,99.90
2018-03-22T19:08:57.487Z,99.90
2018-03-22T19:11:25.104Z,99.90
2018-03-22T19:13:53.489Z,99.90
2018-03-22T19:16:21.680Z,99.90
2018-03-22T19:18:50.011Z,99.90
2018-03-22T19:21:17.595Z,99.90
2018-03-22T19:23:46.233Z,99.90
2018-03-22T19:26:13.815Z,99.90
2018-03-22T19:28:41.432Z,99.90
2018-03-22T19:34:26.629Z,99.90
2018-03-22T19:36:54.212Z,99.90
2018-03-22T19:39:21.807Z,99.90
2018-03-22T19:41:49.418Z,99.90
2018-03-22T19:44:16.983Z,99.90
2018-03-22T19:46:44.640Z,99.90
2018-03-22T19:49:12.232Z,99.90
2018-03-22T19:51:39.841Z,99.90
2018-03-22T19:54:07.437Z,99.90
2018-03-22T19:56:35.063Z,99.90
2018-03-22T19:59:03.459Z,99.90
2018-03-22T20:01:33.199Z,99.90
2018-03-22T20:04:00.775Z,99.90
2018-03-22T20:06:28.383Z,99.90
2018-03-22T20:08:55.964Z,99.90
2018-03-22T20:11:23.559Z,99.90
2018-03-22T20:13:51.155Z,99.90
2018-03-22T20:16:20.000Z,99.90
2018-03-22T20:18:47.631Z,99.90
2018-03-22T20:24:15.826Z,99.90
2018-03-22T20:26:43.441Z,99.90
2018-03-22T20:29:11.832Z,99.90
2018-03-22T20:31:40.214Z,99.90
2018-03-22T20:34:07.830Z,99.90
2018-03-22T20:36:35.416Z,99.90
2018-03-22T20:39:03.036Z,99.90
2018-03-22T20:41:30.592Z,99.90
2018-03-22T20:43:58.199Z,99.90
2018-03-22T20:46:25.800Z,99.90
2018-03-22T20:48:53.422Z,99.90
2018-03-22T20:51:21.779Z,99.90
2018-03-22T20:53:49.431Z,99.90
2018-03-22T20:56:17.057Z,99.90
2018-03-22T20:58:44.680Z,99.90
2018-03-22T21:01:12.312Z,99.90
2018-03-22T21:03:40.911Z,99.90
2018-03-22T21:06:08.503Z,99.90
2018-03-22T21:08:36.845Z,99.90
2018-03-22T21:11:05.212Z,99.90
2018-03-22T21:13:32.808Z,99.90
2018-03-22T21:16:01.189Z,99.90
2018-03-22T21:18:29.583Z,99.90
2018-03-22T21:21:22.248Z,99.90
2018-03-22T21:23:49.858Z,99.90
2018-03-22T21:26:17.446Z,99.90
2018-03-22T21:28:45.858Z,99.90
2018-03-22T21:31:14.250Z,99.90
2018-03-22T21:33:41.848Z,99.90
2018-03-22T21:36:09.459Z,99.90
2018-03-22T21:38:37.068Z,99.90
2018-03-22T21:41:05.464Z,99.90
2018-03-22T21:43:33.101Z,99.90
2018-03-22T21:46:00.698Z,99.90
2018-03-22T21:48:28.306Z,99.90
2018-03-22T21:51:00.876Z,99.90
2018-03-22T21:53:28.475Z,99.90
2018-03-22T21:55:56.823Z,99.90
2018-03-22T21:58:24.422Z,99.90
2018-03-22T22:00:52.051Z,99.90
2018-03-22T22:03:19.697Z,99.90
2018-03-22T22:05:47.280Z,99.90
2018-03-22T22:08:14.849Z,99.90
2018-03-22T22:10:43.226Z,99.90
2018-03-22T22:13:11.574Z,99.90
2018-03-22T22:15:39.195Z,99.90
2018-03-22T22:18:07.088Z,99.90
2018-03-22T22:20:34.723Z,99.90
2018-03-22T22:23:02.316Z,99.90
2018-03-22T22:25:29.950Z,99.90
2018-03-22T22:27:57.598Z,99.90
2018-03-22T22:33:27.147Z,99.90
2018-03-22T22:35:55.544Z,99.90
2018-03-22T22:38:23.123Z,99.90
2018-03-22T22:40:50.758Z,99.90
2018-03-22T22:43:18.397Z,99.90
2018-03-22T22:45:46.884Z,99.90
2018-03-22T22:48:14.514Z,99.90
2018-03-22T22:50:42.888Z,99.90
2018-03-22T22:53:11.247Z,99.90
2018-03-22T22:55:38.830Z,99.90
2018-03-22T22:58:07.277Z,99.90
2018-03-22T23:00:34.865Z,99.90
2018-03-22T23:03:03.317Z,99.90
2018-03-22T23:05:30.873Z,99.90
2018-03-22T23:07:58.439Z,99.90
2018-03-22T23:10:26.050Z,99.90
2018-03-22T23:12:53.692Z,99.90
2018-03-22T23:15:22.115Z,99.90
2018-03-22T23:17:49.726Z,99.90
2018-03-22T23:20:18.074Z,99.90
2018-03-22T23:22:45.699Z,99.90
2018-03-22T23:25:14.084Z,99.90
2018-03-22T23:27:41.643Z,99.90
2018-03-22T23:30:09.261Z,99.90
2018-03-22T23:32:37.592Z,99.90
2018-03-22T23:35:05.219Z,99.90
2018-03-22T23:37:34.014Z,99.90
2018-03-22T23:40:01.626Z,99.90
2018-03-22T23:42:29.251Z,99.90
2018-03-22T23:44:56.804Z,99.90
2018-03-22T23:47:24.413Z,99.90
2018-03-22T23:49:52.008Z,99.90
2018-03-22T23:52:20.196Z,99.90
2018-03-22T23:54:47.791Z,99.90
2018-03-22T23:57:16.149Z,99.90
2018-03-22T23:59:43.772Z,99.90
